Terminal Aerodrome Forecast
Issued by NWS

Home | Current Version | Previous Version | Text Only | Print | Product List | Glossary On
Versions: 1 2 3 4 5 6 7 8 9 10 11 12 13 14 15 16 17
000
FTUS46 KMTR 222326
TAFSTS
TAF
KSTS 222326Z 2300/2324 33011G18KT P6SM -SHRA SCT040 BKN050 BKN250
     FM230400 30008KT P6SM FEW035 FEW250
     FM230800 31004KT 1/2SM FG VV002
     FM231600 34007KT P6SM SKC
     FM232200 29008KT P6SM SKC=

USA.gov is the U.S. government's official web portal to all federal, state and local government web resources and services.